createdAt,value
2017-09-21T00:00:52.430Z,13.19
2017-09-21T00:03:19.835Z,13.20
2017-09-21T00:05:47.235Z,13.24
2017-09-21T00:08:14.743Z,13.25
2017-09-21T00:10:42.142Z,13.25
2017-09-21T00:13:09.542Z,13.26
2017-09-21T00:15:36.946Z,13.25
2017-09-21T00:18:04.346Z,13.22
2017-09-21T00:20:32.073Z,13.23
2017-09-21T00:22:59.502Z,13.23
2017-09-21T00:25:26.902Z,13.19
2017-09-21T00:27:54.311Z,13.17
2017-09-21T00:30:21.706Z,13.16
2017-09-21T00:32:49.217Z,13.11
2017-09-21T00:35:16.611Z,13.08
2017-09-21T00:37:44.008Z,13.03
2017-09-21T00:40:11.402Z,13.00
2017-09-21T00:42:38.798Z,13.00
2017-09-21T00:45:06.215Z,12.94
2017-09-21T00:47:33.611Z,12.89
2017-09-21T00:50:01.007Z,12.83
2017-09-21T00:52:28.412Z,12.76
2017-09-21T00:54:55.810Z,12.72
2017-09-21T00:57:23.367Z,12.63
2017-09-21T00:59:50.758Z,12.58
2017-09-21T01:02:18.154Z,12.55
2017-09-21T01:04:45.558Z,12.53
2017-09-21T01:07:12.982Z,12.52
2017-09-21T01:09:40.383Z,12.44
2017-09-21T01:12:07.783Z,12.37
2017-09-21T01:14:35.180Z,12.29
2017-09-21T01:17:02.587Z,12.21
2017-09-21T01:19:29.983Z,12.13
2017-09-21T01:21:57.419Z,12.06
2017-09-21T01:24:25.673Z,12.00
2017-09-21T01:26:53.062Z,11.96
2017-09-21T01:29:20.462Z,11.90
2017-09-21T01:31:47.859Z,11.84
2017-09-21T01:34:15.411Z,11.80
2017-09-21T01:36:42.813Z,11.72
2017-09-21T01:39:10.198Z,11.70
2017-09-21T01:41:37.598Z,11.66
2017-09-21T01:44:04.995Z,11.68
2017-09-21T01:46:32.426Z,11.62
2017-09-21T01:48:59.827Z,11.59
2017-09-21T01:51:27.222Z,11.54
2017-09-21T01:53:54.622Z,11.51
2017-09-21T01:56:22.019Z,11.47
2017-09-21T01:58:49.427Z,11.43
2017-09-21T02:01:16.827Z,11.39
2017-09-21T02:03:44.227Z,11.35
2017-09-21T02:06:11.626Z,11.36
2017-09-21T02:08:39.024Z,11.37
2017-09-21T02:11:06.438Z,11.34
2017-09-21T02:13:33.826Z,11.32
2017-09-21T02:16:01.223Z,11.28
2017-09-21T02:18:28.626Z,11.26
2017-09-21T02:20:56.023Z,11.23
2017-09-21T02:23:23.424Z,11.20
2017-09-21T02:25:50.830Z,11.17
2017-09-21T02:28:18.232Z,11.13
2017-09-21T02:30:45.638Z,11.09
2017-09-21T02:33:13.036Z,11.08
2017-09-21T02:35:40.431Z,11.05
2017-09-21T02:38:07.834Z,11.04
2017-09-21T02:40:35.232Z,11.02
2017-09-21T02:43:02.627Z,11.00
2017-09-21T02:45:30.031Z,11.00
2017-09-21T02:47:57.430Z,10.96
2017-09-21T02:50:24.843Z,10.94
2017-09-21T02:52:52.246Z,10.90
2017-09-21T02:55:19.642Z,10.89
2017-09-21T02:57:47.038Z,10.90
2017-09-21T03:00:14.442Z,10.89
2017-09-21T03:02:41.839Z,10.89
2017-09-21T03:05:09.239Z,10.84
2017-09-21T03:07:36.642Z,10.84
2017-09-21T03:10:04.043Z,10.86
2017-09-21T03:12:31.446Z,10.83
2017-09-21T03:14:58.851Z,10.83
2017-09-21T03:17:26.250Z,10.86
2017-09-21T03:19:53.652Z,10.86
2017-09-21T03:22:21.051Z,10.87
2017-09-21T03:24:48.458Z,10.86
2017-09-21T03:27:15.864Z,10.83
2017-09-21T03:29:43.262Z,10.86
2017-09-21T03:32:10.968Z,10.81
2017-09-21T03:34:38.364Z,10.83
2017-09-21T03:37:05.762Z,10.80
2017-09-21T03:39:33.177Z,10.77
2017-09-21T03:42:00.570Z,10.76
2017-09-21T03:44:27.975Z,10.72
2017-09-21T03:46:55.533Z,10.76
2017-09-21T03:49:22.926Z,10.75
2017-09-21T03:51:50.323Z,10.77
2017-09-21T03:54:17.755Z,10.76
2017-09-21T03:56:45.155Z,10.76
2017-09-21T03:59:12.551Z,10.77
2017-09-21T04:01:39.951Z,10.74
2017-09-21T04:04:07.342Z,10.69
2017-09-21T04:06:34.907Z,10.65
2017-09-21T04:09:02.306Z,10.64
2017-09-21T04:11:29.711Z,10.68
2017-09-21T04:13:57.120Z,10.63
2017-09-21T04:16:24.510Z,10.60
2017-09-21T04:18:52.070Z,10.59
2017-09-21T04:21:19.480Z,10.59
2017-09-21T04:23:46.875Z,10.52
2017-09-21T04:26:14.290Z,10.56
2017-09-21T04:28:41.682Z,10.53
2017-09-21T04:31:09.447Z,10.46
2017-09-21T04:33:36.843Z,10.48
2017-09-21T04:36:04.243Z,10.48
2017-09-21T04:38:31.647Z,10.47
2017-09-21T04:40:59.043Z,10.47
2017-09-21T04:43:27.563Z,10.45
2017-09-21T04:45:54.968Z,10.44
2017-09-21T04:48:22.354Z,10.49
2017-09-21T04:50:49.755Z,10.48
2017-09-21T04:53:17.150Z,10.51
2017-09-21T04:55:44.711Z,10.52
2017-09-21T04:58:12.375Z,10.49
2017-09-21T05:00:39.767Z,10.49
2017-09-21T05:03:08.015Z,10.49
2017-09-21T05:05:35.414Z,10.48
2017-09-21T05:08:02.966Z,10.45
2017-09-21T05:10:30.378Z,10.47
2017-09-21T05:12:57.780Z,10.50
2017-09-21T05:15:25.198Z,10.51
2017-09-21T05:17:52.595Z,10.53
2017-09-21T05:20:20.011Z,10.54
2017-09-21T05:22:47.402Z,10.58
2017-09-21T05:25:14.816Z,10.55
2017-09-21T05:27:42.206Z,10.54
2017-09-21T05:30:09.606Z,10.55
2017-09-21T05:32:37.515Z,10.54
2017-09-21T05:35:04.920Z,10.58
2017-09-21T05:37:32.315Z,10.54
2017-09-21T05:39:59.718Z,10.54
2017-09-21T05:42:27.119Z,10.55
2017-09-21T05:44:55.496Z,10.55
2017-09-21T05:47:22.898Z,10.55
2017-09-21T05:49:50.295Z,10.57
2017-09-21T05:52:17.709Z,10.60
2017-09-21T05:54:45.106Z,10.61
2017-09-21T05:57:12.558Z,10.59
2017-09-21T05:59:39.971Z,10.65
2017-09-21T06:02:07.375Z,10.66
2017-09-21T06:04:34.778Z,10.66
2017-09-21T06:07:02.173Z,10.70
2017-09-21T06:09:30.086Z,10.69
2017-09-21T06:11:57.487Z,10.71
2017-09-21T06:14:24.887Z,10.74
2017-09-21T06:16:52.287Z,10.73
2017-09-21T06:19:19.686Z,10.76
2017-09-21T06:21:47.574Z,10.76
2017-09-21T06:24:14.987Z,10.80
2017-09-21T06:26:42.378Z,10.88
2017-09-21T06:29:09.787Z,10.90
2017-09-21T06:31:37.187Z,10.94
2017-09-21T06:34:04.618Z,10.99
2017-09-21T06:36:32.019Z,11.03
2017-09-21T06:38:59.410Z,11.11
2017-09-21T06:41:26.814Z,11.17
2017-09-21T06:43:54.214Z,11.21
2017-09-21T06:46:21.759Z,11.26
2017-09-21T06:48:49.155Z,11.31
2017-09-21T06:51:16.550Z,11.42
2017-09-21T06:53:43.954Z,11.48
2017-09-21T06:56:11.351Z,11.53
2017-09-21T06:58:38.778Z,11.57
2017-09-21T07:01:06.171Z,11.60
2017-09-21T07:03:33.571Z,11.64
2017-09-21T07:06:00.975Z,11.72
2017-09-21T07:08:28.367Z,11.74
2017-09-21T07:10:55.790Z,11.83
2017-09-21T07:13:23.181Z,11.91
2017-09-21T07:15:50.574Z,11.97
2017-09-21T07:18:17.987Z,12.04
2017-09-21T07:20:45.379Z,12.10
2017-09-21T07:23:12.940Z,12.13
2017-09-21T07:25:40.334Z,12.17
2017-09-21T07:28:07.731Z,12.22
2017-09-21T07:30:35.138Z,12.27
2017-09-21T07:33:02.546Z,12.36
2017-09-21T07:35:29.943Z,12.47
2017-09-21T07:37:57.334Z,12.53
2017-09-21T07:40:24.735Z,12.59
2017-09-21T07:42:52.136Z,12.64
2017-09-21T07:45:19.683Z,12.78
2017-09-21T07:47:47.080Z,12.88
2017-09-21T07:50:14.478Z,13.03
2017-09-21T07:52:41.879Z,13.06
2017-09-21T07:55:09.274Z,13.13
2017-09-21T07:57:36.702Z,13.20
2017-09-21T08:00:04.139Z,13.24
2017-09-21T08:02:31.541Z,13.37
2017-09-21T08:04:58.946Z,13.42
2017-09-21T08:07:26.346Z,13.48
2017-09-21T08:09:53.754Z,13.53
2017-09-21T08:12:21.199Z,13.61
2017-09-21T08:14:48.598Z,13.66
2017-09-21T08:17:16.015Z,13.74
2017-09-21T08:19:43.426Z,13.81
2017-09-21T08:22:10.852Z,13.96
2017-09-21T08:24:38.246Z,14.02
2017-09-21T08:27:05.647Z,14.17
2017-09-21T08:29:33.047Z,14.26
2017-09-21T08:32:00.448Z,14.37
2017-09-21T08:34:27.994Z,14.49
2017-09-21T08:36:55.391Z,14.62
2017-09-21T08:39:22.794Z,14.77
2017-09-21T08:41:50.199Z,14.87
2017-09-21T08:44:17.600Z,15.14
2017-09-21T08:46:45.515Z,15.36
2017-09-21T08:49:12.918Z,15.53
2017-09-21T08:51:40.320Z,15.74
2017-09-21T08:54:07.722Z,15.95
2017-09-21T08:56:35.125Z,16.14
2017-09-21T08:59:02.678Z,16.33
2017-09-21T09:01:30.071Z,16.51
2017-09-21T09:03:57.471Z,16.78
2017-09-21T09:06:24.876Z,16.99
2017-09-21T09:08:52.317Z,17.22
2017-09-21T09:11:19.854Z,17.42
2017-09-21T09:13:47.247Z,17.63
2017-09-21T09:16:14.634Z,17.74
2017-09-21T09:18:42.030Z,17.95
2017-09-21T09:21:09.423Z,18.23
2017-09-21T09:23:36.967Z,18.49
2017-09-21T09:26:04.359Z,18.80
2017-09-21T09:28:31.749Z,19.11
2017-09-21T09:30:59.150Z,19.53
2017-09-21T09:33:26.534Z,19.96
2017-09-21T09:35:54.102Z,20.30
2017-09-21T09:38:21.491Z,20.73
2017-09-21T09:40:48.878Z,21.14
2017-09-21T09:43:16.275Z,21.44
2017-09-21T09:45:43.663Z,21.62
2017-09-21T09:48:11.092Z,21.66
2017-09-21T09:50:38.475Z,21.79
2017-09-21T09:53:05.871Z,22.02
2017-09-21T09:55:33.274Z,22.30
2017-09-21T09:58:00.668Z,22.58
2017-09-21T10:00:28.210Z,22.82
2017-09-21T10:02:55.600Z,22.98
2017-09-21T10:05:22.986Z,23.06
2017-09-21T10:07:50.388Z,23.17
2017-09-21T10:10:17.779Z,23.22
2017-09-21T10:12:45.322Z,22.94
2017-09-21T10:15:12.711Z,22.88
2017-09-21T10:17:40.102Z,22.80
2017-09-21T10:20:07.499Z,23.01
2017-09-21T10:22:34.890Z,23.07
2017-09-21T10:25:02.291Z,23.30
2017-09-21T10:27:29.683Z,23.46
2017-09-21T10:29:57.087Z,23.70
2017-09-21T10:32:24.480Z,24.00
2017-09-21T10:34:51.868Z,24.36
2017-09-21T10:37:19.254Z,24.34
2017-09-21T10:39:46.641Z,24.49
2017-09-21T10:42:14.070Z,24.76
2017-09-21T10:44:41.463Z,24.92
2017-09-21T10:47:09.232Z,24.94
2017-09-21T10:49:37.907Z,24.97
2017-09-21T10:52:05.297Z,24.52
2017-09-21T10:54:32.713Z,24.42
2017-09-21T10:57:00.103Z,24.67
2017-09-21T10:59:27.494Z,24.88
2017-09-21T11:01:54.890Z,24.98
2017-09-21T11:04:22.286Z,24.67
2017-09-21T11:06:49.830Z,24.01
2017-09-21T11:09:17.231Z,24.04
2017-09-21T11:11:44.623Z,24.53
2017-09-21T11:14:13.019Z,24.85
2017-09-21T11:16:40.410Z,25.19
2017-09-21T11:19:07.963Z,25.21
2017-09-21T11:21:35.350Z,25.03
2017-09-21T11:24:02.742Z,24.86
2017-09-21T11:26:30.135Z,25.09
2017-09-21T11:28:57.523Z,24.81
2017-09-21T11:31:25.223Z,25.14
2017-09-21T11:33:52.614Z,25.40
2017-09-21T11:36:20.002Z,25.46
2017-09-21T11:38:47.398Z,25.75
2017-09-21T11:41:14.790Z,25.64
2017-09-21T11:43:42.223Z,25.41
2017-09-21T11:46:09.607Z,25.26
2017-09-21T11:48:36.995Z,25.00
2017-09-21T11:51:04.395Z,25.04
2017-09-21T11:53:31.788Z,25.13
2017-09-21T11:55:59.882Z,25.15
2017-09-21T11:58:27.278Z,25.20
2017-09-21T12:00:54.671Z,25.40
2017-09-21T12:03:22.070Z,25.40
2017-09-21T12:05:49.466Z,25.58
2017-09-21T12:08:16.856Z,25.67
2017-09-21T12:10:44.418Z,25.34
2017-09-21T12:13:11.811Z,25.20
2017-09-21T12:15:39.202Z,25.10
2017-09-21T12:18:06.598Z,25.11
2017-09-21T12:20:33.980Z,25.03
2017-09-21T12:23:01.399Z,25.04
2017-09-21T12:25:28.790Z,25.05
2017-09-21T12:27:56.170Z,25.09
2017-09-21T12:30:23.568Z,25.08
2017-09-21T12:32:50.964Z,25.16
2017-09-21T12:35:18.623Z,25.26
2017-09-21T12:37:46.016Z,25.33
2017-09-21T12:40:13.407Z,25.43
2017-09-21T12:42:40.807Z,25.50
2017-09-21T12:45:08.201Z,25.44
2017-09-21T12:47:35.626Z,25.53
2017-09-21T12:50:03.016Z,25.30
2017-09-21T12:52:30.411Z,25.27
2017-09-21T12:54:57.820Z,25.32
2017-09-21T12:57:25.206Z,25.32
2017-09-21T12:59:52.629Z,25.33
2017-09-21T13:02:20.025Z,25.29
2017-09-21T13:04:47.408Z,25.32
2017-09-21T13:07:14.811Z,25.37
2017-09-21T13:09:42.192Z,25.19
2017-09-21T13:12:09.599Z,24.98
2017-09-21T13:14:36.987Z,24.74
2017-09-21T13:17:04.374Z,24.52
2017-09-21T13:19:31.770Z,24.38
2017-09-21T13:21:59.163Z,24.45
2017-09-21T13:24:26.969Z,24.25
2017-09-21T13:26:54.355Z,24.36
2017-09-21T13:29:21.748Z,23.85
2017-09-21T13:31:49.139Z,23.99
2017-09-21T13:34:16.527Z,24.03
2017-09-21T13:36:44.030Z,23.88
2017-09-21T13:39:11.419Z,23.69
2017-09-21T13:41:38.819Z,23.46
2017-09-21T13:44:06.219Z,23.41
2017-09-21T13:46:33.614Z,23.23
2017-09-21T13:49:01.160Z,23.32
2017-09-21T13:51:28.547Z,23.30
2017-09-21T13:53:55.945Z,23.33
2017-09-21T13:56:23.333Z,23.38
2017-09-21T13:58:50.731Z,23.31
2017-09-21T14:01:18.518Z,23.14
2017-09-21T14:03:45.910Z,23.07
2017-09-21T14:06:13.340Z,23.07
2017-09-21T14:08:40.730Z,23.01
2017-09-21T14:11:08.123Z,22.76
2017-09-21T14:13:35.515Z,22.85
2017-09-21T14:16:03.827Z,22.89
2017-09-21T14:18:31.383Z,22.91
2017-09-21T14:20:58.776Z,22.82
2017-09-21T14:23:26.172Z,22.78
2017-09-21T14:25:53.567Z,22.77
2017-09-21T14:28:20.954Z,22.69
2017-09-21T14:30:48.826Z,22.33
2017-09-21T14:33:16.236Z,22.40
2017-09-21T14:35:43.622Z,22.44
2017-09-21T14:38:11.023Z,22.41
2017-09-21T14:40:38.419Z,22.11
2017-09-21T14:43:06.043Z,22.21
2017-09-21T14:45:33.679Z,22.21
2017-09-21T14:48:01.066Z,22.20
2017-09-21T14:50:28.483Z,22.29
2017-09-21T14:52:58.399Z,22.22
2017-09-21T14:55:29.394Z,22.25
2017-09-21T14:57:56.783Z,22.18
2017-09-21T15:00:24.180Z,22.20
2017-09-21T15:02:51.585Z,22.16
2017-09-21T15:05:18.971Z,22.11
2017-09-21T15:07:46.635Z,22.10
2017-09-21T15:10:14.687Z,22.03
2017-09-21T15:12:42.992Z,21.96
2017-09-21T15:15:10.385Z,21.97
2017-09-21T15:17:37.771Z,21.85
2017-09-21T15:20:06.190Z,21.83
2017-09-21T15:22:33.575Z,21.85
2017-09-21T15:25:09.200Z,21.83
2017-09-21T15:27:36.583Z,21.81
2017-09-21T15:30:03.977Z,21.78
2017-09-21T15:32:31.358Z,21.75
2017-09-21T15:34:58.752Z,21.74
2017-09-21T15:37:26.162Z,21.67
2017-09-21T15:39:53.553Z,21.64
2017-09-21T15:42:20.966Z,21.55
2017-09-21T15:44:48.356Z,21.51
2017-09-21T15:47:16.458Z,21.44
2017-09-21T15:49:43.881Z,21.39
2017-09-21T15:52:11.294Z,21.35
2017-09-21T15:54:38.679Z,21.29
2017-09-21T15:57:06.082Z,21.23
2017-09-21T15:59:33.478Z,21.19
2017-09-21T16:02:00.914Z,21.15
2017-09-21T16:04:28.312Z,21.13
2017-09-21T16:06:55.700Z,21.06
2017-09-21T16:09:23.129Z,20.99
2017-09-21T16:11:50.514Z,20.93
2017-09-21T16:14:18.054Z,20.85
2017-09-21T16:16:45.451Z,20.77
2017-09-21T16:19:12.839Z,20.67
2017-09-21T16:21:40.242Z,20.62
2017-09-21T16:24:07.634Z,20.49
2017-09-21T16:26:35.174Z,20.42
2017-09-21T16:29:02.561Z,20.34
2017-09-21T16:31:29.950Z,20.21
2017-09-21T16:33:57.371Z,20.14
2017-09-21T16:36:24.755Z,20.00
2017-09-21T16:38:52.178Z,19.85
2017-09-21T16:41:19.579Z,19.77
2017-09-21T16:43:46.975Z,19.67
2017-09-21T16:46:15.335Z,19.57
2017-09-21T16:48:43.750Z,19.47
2017-09-21T16:51:11.251Z,19.36
2017-09-21T16:53:38.639Z,19.27
2017-09-21T16:56:06.096Z,19.15
2017-09-21T16:58:33.493Z,19.05
2017-09-21T17:01:01.977Z,18.94
2017-09-21T17:03:29.404Z,18.90
2017-09-21T17:05:56.787Z,18.79
2017-09-21T17:08:24.175Z,18.70
2017-09-21T17:10:51.573Z,18.61
2017-09-21T17:13:18.962Z,18.49
2017-09-21T17:15:46.510Z,18.37
2017-09-21T17:18:13.898Z,18.29
2017-09-21T17:20:41.282Z,18.18
2017-09-21T17:23:08.679Z,18.04
2017-09-21T17:25:36.071Z,17.96
2017-09-21T17:28:03.578Z,17.86
2017-09-21T17:30:30.968Z,17.81
2017-09-21T17:32:58.476Z,17.68
2017-09-21T17:35:25.863Z,17.47
2017-09-21T17:37:53.252Z,17.42
2017-09-21T17:40:20.642Z,17.42
2017-09-21T17:42:48.031Z,17.34
2017-09-21T17:45:15.451Z,17.21
2017-09-21T17:47:42.841Z,17.13
2017-09-21T17:50:10.231Z,17.09
2017-09-21T17:52:37.618Z,17.00
2017-09-21T17:55:05.007Z,16.86
2017-09-21T17:57:32.402Z,16.82
2017-09-21T17:59:59.795Z,16.78
2017-09-21T18:02:27.343Z,16.77
2017-09-21T18:04:54.736Z,16.69
2017-09-21T18:07:22.139Z,16.64
2017-09-21T18:09:49.530Z,16.59
2017-09-21T18:12:16.951Z,16.50
2017-09-21T18:14:44.367Z,16.56
2017-09-21T18:17:12.095Z,16.53
2017-09-21T18:19:39.650Z,16.47
2017-09-21T18:22:07.034Z,16.46
2017-09-21T18:24:34.423Z,16.41
2017-09-21T18:27:01.822Z,16.39
2017-09-21T18:29:29.212Z,16.33
2017-09-21T18:31:57.674Z,16.35
2017-09-21T18:34:25.698Z,16.36
2017-09-21T18:36:53.141Z,16.31
2017-09-21T18:39:23.194Z,16.25
2017-09-21T18:41:50.598Z,16.19
2017-09-21T18:44:18.011Z,16.12
2017-09-21T18:46:45.414Z,16.12
2017-09-21T18:49:12.926Z,16.10
2017-09-21T18:51:40.321Z,16.07
2017-09-21T18:54:07.712Z,16.05
2017-09-21T18:56:35.426Z,16.00
2017-09-21T18:59:02.819Z,15.99
2017-09-21T19:01:30.256Z,15.98
2017-09-21T19:03:57.640Z,15.90
2017-09-21T19:06:25.200Z,15.91
2017-09-21T19:08:52.595Z,15.92
2017-09-21T19:11:20.008Z,15.91
2017-09-21T19:13:47.400Z,15.94
2017-09-21T19:16:15.439Z,15.97
2017-09-21T19:18:42.829Z,15.93
2017-09-21T19:21:10.223Z,15.92
2017-09-21T19:23:37.624Z,15.89
2017-09-21T19:26:08.866Z,15.88
2017-09-21T19:28:36.266Z,15.89
2017-09-21T19:31:03.667Z,15.86
2017-09-21T19:33:31.054Z,15.81
2017-09-21T19:35:58.470Z,15.80
2017-09-21T19:38:25.863Z,15.82
2017-09-21T19:40:53.291Z,15.81
2017-09-21T19:43:20.686Z,15.80
2017-09-21T19:45:48.332Z,15.80
2017-09-21T19:48:15.734Z,15.77
2017-09-21T19:50:43.127Z,15.75
2017-09-21T19:53:10.527Z,15.77
2017-09-21T19:55:37.923Z,15.73
2017-09-21T19:58:05.479Z,15.64
2017-09-21T20:00:32.879Z,15.67
2017-09-21T20:03:00.286Z,15.66
2017-09-21T20:05:27.695Z,15.65
2017-09-21T20:07:55.086Z,15.65
2017-09-21T20:10:22.487Z,15.61
2017-09-21T20:12:49.886Z,15.55
2017-09-21T20:15:17.295Z,15.54
2017-09-21T20:17:44.700Z,15.49
2017-09-21T20:20:12.095Z,15.44
2017-09-21T20:22:39.498Z,15.42
2017-09-21T20:25:06.894Z,15.38
2017-09-21T20:27:34.295Z,15.34
2017-09-21T20:30:01.691Z,15.31
2017-09-21T20:32:29.086Z,15.28
2017-09-21T20:34:56.487Z,15.32
2017-09-21T20:37:23.887Z,15.27
2017-09-21T20:39:51.442Z,15.20
2017-09-21T20:42:18.843Z,15.22
2017-09-21T20:44:46.243Z,15.18
2017-09-21T20:47:13.647Z,15.17
2017-09-21T20:49:41.047Z,15.14
2017-09-21T20:52:08.455Z,15.14
2017-09-21T20:54:35.865Z,15.10
2017-09-21T20:57:03.526Z,15.06
2017-09-21T20:59:30.935Z,15.07
2017-09-21T21:01:58.386Z,15.05
2017-09-21T21:04:25.792Z,15.01
2017-09-21T21:06:53.186Z,14.99
2017-09-21T21:09:20.587Z,14.96
2017-09-21T21:11:47.993Z,14.92
2017-09-21T21:14:15.601Z,14.84
2017-09-21T21:16:42.998Z,14.80
2017-09-21T21:19:10.405Z,14.78
2017-09-21T21:21:37.795Z,14.75
2017-09-21T21:24:05.200Z,14.67
2017-09-21T21:26:32.596Z,14.63
2017-09-21T21:28:59.991Z,14.61
2017-09-21T21:31:27.550Z,14.56
2017-09-21T21:33:54.945Z,14.51
2017-09-21T21:36:22.343Z,14.47
2017-09-21T21:38:49.751Z,14.42
2017-09-21T21:41:17.146Z,14.39
2017-09-21T21:43:44.551Z,14.35
2017-09-21T21:46:11.945Z,14.32
2017-09-21T21:48:39.451Z,14.30
2017-09-21T21:51:06.856Z,14.22
2017-09-21T21:53:34.254Z,14.20
2017-09-21T21:56:01.659Z,14.19
2017-09-21T21:58:29.055Z,14.14
2017-09-21T22:00:57.260Z,14.09
2017-09-21T22:03:24.650Z,14.06
2017-09-21T22:05:52.046Z,14.01
2017-09-21T22:08:19.451Z,13.97
2017-09-21T22:10:46.854Z,13.93
2017-09-21T22:13:14.286Z,13.91
2017-09-21T22:15:41.691Z,13.87
2017-09-21T22:18:09.090Z,13.83
2017-09-21T22:20:36.494Z,13.83
2017-09-21T22:23:03.886Z,13.82
2017-09-21T22:25:31.294Z,13.78
2017-09-21T22:27:58.686Z,13.74
2017-09-21T22:30:26.239Z,13.74
2017-09-21T22:32:53.636Z,13.73
2017-09-21T22:35:21.031Z,13.73
2017-09-21T22:37:48.434Z,13.71
2017-09-21T22:40:15.843Z,13.71
2017-09-21T22:42:43.251Z,13.73
2017-09-21T22:45:10.650Z,13.70
2017-09-21T22:47:38.262Z,13.73
2017-09-21T22:50:05.666Z,13.70
2017-09-21T22:52:33.062Z,13.70
2017-09-21T22:55:00.472Z,13.67
2017-09-21T22:57:27.864Z,13.65
2017-09-21T22:59:55.272Z,13.63
2017-09-21T23:02:22.668Z,13.63
2017-09-21T23:04:50.102Z,13.63
2017-09-21T23:07:17.498Z,13.63
2017-09-21T23:09:44.903Z,13.67
2017-09-21T23:12:12.302Z,13.71
2017-09-21T23:14:39.706Z,13.65
2017-09-21T23:17:07.111Z,13.63
2017-09-21T23:19:34.511Z,13.58
2017-09-21T23:22:02.063Z,13.58
2017-09-21T23:24:29.466Z,13.53
2017-09-21T23:26:56.864Z,13.54
2017-09-21T23:29:24.267Z,13.50
2017-09-21T23:31:51.671Z,13.50
2017-09-21T23:34:19.070Z,13.50
2017-09-21T23:36:46.478Z,13.45
2017-09-21T23:39:14.056Z,13.44
2017-09-21T23:41:41.447Z,13.39
2017-09-21T23:44:08.847Z,13.40
2017-09-21T23:46:36.246Z,13.36
2017-09-21T23:49:03.646Z,13.32
2017-09-21T23:51:31.049Z,13.30
2017-09-21T23:53:58.443Z,13.25
2017-09-21T23:56:26.046Z,13.26
2017-09-21T23:58:53.447Z,13.22
